Main page
METAR-TAF:

METAR-TAF

Airports :

Castellón–Costa Azahar Airport

Castellón de la Plana, Spain

latitude: 40-12-35N, longitude: 0-04-11E, elevation: 360 m

Current weather observation

The report was made 30 minutes ago, at 23:30 UTC
Wind 4 kt from the South, varying between South/Southeast and West/Southwest
Temperature 16°C
Humidity 77%
Pressure 1018 hPa
Visibility 10 km or more

METAR: LECH 222330Z AUTO 19004KT 160V240 9999 NCD 16/12 Q1018

Time: 02:00 (00:00 UTC)


TAF: missing

Weather observations and forecasts of more than 4000 airports (METAR and TAF reports).

The available stations are represented by yellow and red dots on the map.

Hover mouse over dot to see the name of the station.

Then click to see weather observations and forecasts.

To change the map : click on the green buttons with a black cross to zoom in, on the green button with a dash to zoom out, or on the green arrows for adjacent maps.


METAR-TAF: